Time;durP1;ratioP1;P1;durP2;ratioP2;P2;SDS_P1;SDS_P2;PMS_P1;PMS_P2;Temp;Humidity;BMP_temperature;BMP_pressure;BME280_temperature;BME280_humidity;BME280_pressure;Samples;Min_cycle;Max_cycle;Signal;HPM_P1;HPM_P2
2022/12/27 00:05:22;;;;;;;10.35;2.70;;;3.40;99.90;;;;;;12494080;28;20494;-85
2022/12/27 00:11:28;;;;;;;12.07;2.83;;;3.40;99.90;;;;;;12490467;28;20049;-84
2022/12/27 00:17:30;;;;;;;11.40;2.78;;;3.40;99.90;;;;;;12490505;28;20126;-85
2022/12/27 00:23:35;;;;;;;14.00;3.08;;;3.30;99.90;;;;;;12516359;28;20049;-84
2022/12/27 00:29:37;;;;;;;10.45;3.00;;;3.30;99.90;;;;;;12501465;28;20110;-84
2022/12/27 00:35:39;;;;;;;10.57;3.05;;;3.30;99.90;;;;;;12582228;28;20408;-84
2022/12/27 00:41:40;;;;;;;11.05;2.72;;;3.30;99.90;;;;;;12570185;28;20485;-84
2022/12/27 00:47:42;;;;;;;10.40;3.13;;;3.30;99.90;;;;;;12553991;28;20122;-84
2022/12/27 00:53:45;;;;;;;12.60;2.83;;;3.30;99.90;;;;;;12585562;28;20037;-84
2022/12/27 00:59:47;;;;;;;11.43;3.08;;;3.30;99.90;;;;;;12583106;28;20659;-84
2022/12/27 01:05:48;;;;;;;11.85;2.90;;;3.40;99.90;;;;;;12585650;28;20044;-84
2022/12/27 01:11:50;;;;;;;11.20;2.22;;;3.50;99.90;;;;;;12561290;28;20070;-84
2022/12/27 01:17:52;;;;;;;9.10;2.47;;;3.50;99.90;;;;;;12589125;28;20064;-85
2022/12/27 01:23:54;;;;;;;8.10;2.30;;;3.50;99.90;;;;;;12585527;28;20488;-84
2022/12/27 01:29:56;;;;;;;8.88;2.50;;;3.40;99.90;;;;;;12591437;28;20068;-84
2022/12/27 01:36:10;;;;;;;9.05;2.47;;;3.50;99.90;;;;;;12575915;28;20101;-84
2022/12/27 01:48:36;;;;;;;9.52;2.25;;;3.40;99.90;;;;;;12583843;28;20409;-84
2022/12/27 01:54:39;;;;;;;10.07;2.15;;;3.40;99.90;;;;;;12556524;28;20051;-84
2022/12/27 02:00:44;;;;;;;11.35;2.45;;;3.40;99.90;;;;;;12569612;28;20036;-84
2022/12/27 02:06:47;;;;;;;7.50;2.53;;;3.40;99.90;;;;;;12584148;28;20055;-84
2022/12/27 02:12:49;;;;;;;8.73;2.00;;;3.40;99.90;;;;;;12566689;28;20068;-84
2022/12/27 02:18:51;;;;;;;8.82;2.50;;;3.50;99.90;;;;;;12565278;28;20148;-84
2022/12/27 02:25:05;;;;;;;12.50;2.75;;;3.40;99.90;;;;;;12586217;28;20056;-84
2022/12/27 02:31:14;;;;;;;6.23;2.30;;;3.40;99.90;;;;;;12567505;28;20066;-84
2022/12/27 02:37:19;;;;;;;12.38;2.80;;;3.40;99.90;;;;;;12580984;28;20053;-85
2022/12/27 03:03:20;;;;;;;8.68;2.83;;;3.50;99.90;;;;;;12590123;28;20123;-85
2022/12/27 03:16:16;;;;;;;14.88;3.88;;;3.50;99.90;;;;;;12591323;28;20044;-84
2022/12/27 03:35:14;;;;;;;14.05;3.60;;;3.50;99.90;;;;;;12602958;28;20048;-85
2022/12/27 03:48:04;;;;;;;7.85;4.10;;;3.50;99.90;;;;;;12591291;28;20093;-85
2022/12/27 03:54:30;;;;;;;10.38;4.60;;;3.60;99.90;;;;;;12585005;28;20043;-85
2022/12/27 04:00:32;;;;;;;12.40;4.65;;;3.70;99.90;;;;;;12591092;28;20063;-85
2022/12/27 04:06:34;;;;;;;10.43;4.82;;;3.80;99.90;;;;;;12589669;28;20044;-85
2022/12/27 04:37:57;;;;;;;14.82;5.53;;;3.70;99.90;;;;;;12589660;28;20048;-84
2022/12/27 04:56:51;;;;;;;12.80;5.03;;;3.80;99.90;;;;;;12592262;28;20600;-85
2022/12/27 05:02:53;;;;;;;11.63;5.20;;;3.90;99.90;;;;;;12588973;28;20512;-85
2022/12/27 05:15:23;;;;;;;10.95;5.20;;;3.80;99.90;;;;;;12582884;28;20089;-84
2022/12/27 05:21:25;;;;;;;17.00;6.65;;;3.70;99.90;;;;;;12572048;28;20056;-84
2022/12/27 05:27:27;;;;;;;16.35;5.70;;;3.70;99.90;;;;;;12568797;28;20068;-84
2022/12/27 05:33:30;;;;;;;12.75;6.10;;;3.70;99.90;;;;;;12582965;28;20049;-85
2022/12/27 05:39:32;;;;;;;11.52;5.45;;;3.70;99.90;;;;;;12580587;28;20157;-84
2022/12/27 05:45:34;;;;;;;12.20;5.95;;;3.80;99.90;;;;;;12589427;28;20523;-84
2022/12/27 05:51:35;;;;;;;15.95;6.20;;;3.80;99.90;;;;;;12569522;28;20400;-85
2022/12/27 05:57:37;;;;;;;9.52;5.55;;;3.90;99.90;;;;;;12577424;28;20048;-84
2022/12/27 06:03:39;;;;;;;13.25;6.40;;;3.90;99.90;;;;;;12585913;28;20067;-85
2022/12/27 06:09:41;;;;;;;12.32;6.32;;;4.10;99.90;;;;;;12581241;28;20055;-84
2022/12/27 06:15:43;;;;;;;14.77;5.88;;;4.20;99.90;;;;;;12582295;28;20052;-85
2022/12/27 06:21:45;;;;;;;11.35;5.43;;;4.10;99.90;;;;;;12570131;28;20511;-85
2022/12/27 06:27:47;;;;;;;10.65;5.47;;;4.10;99.90;;;;;;12561631;28;20141;-85
2022/12/27 06:33:50;;;;;;;15.50;5.78;;;4.00;99.90;;;;;;12589418;28;20190;-84
2022/12/27 06:39:51;;;;;;;13.45;5.88;;;4.10;99.90;;;;;;12580474;28;20124;-85
2022/12/27 06:45:58;;;;;;;13.77;7.00;;;4.10;99.90;;;;;;12598632;28;20049;-85
2022/12/27 06:52:00;;;;;;;13.65;6.57;;;4.10;99.90;;;;;;12579967;28;20055;-85
2022/12/27 06:58:02;;;;;;;13.52;6.30;;;4.10;99.90;;;;;;12593128;28;20044;-84
2022/12/27 07:04:04;;;;;;;16.02;6.68;;;4.10;99.90;;;;;;12563680;28;20048;-85
2022/12/27 07:10:06;;;;;;;12.57;6.63;;;4.20;99.90;;;;;;12586436;28;20049;-85
2022/12/27 07:16:10;;;;;;;16.95;5.32;;;4.20;99.90;;;;;;12568876;28;20181;-85
2022/12/27 07:22:12;;;;;;;10.25;5.50;;;4.30;99.90;;;;;;12593800;28;20076;-85
2022/12/27 07:28:14;;;;;;;13.55;5.18;;;4.30;99.90;;;;;;12594689;28;20113;-85
2022/12/27 07:34:16;;;;;;;12.88;5.82;;;4.30;99.90;;;;;;12558947;28;20480;-85
2022/12/27 07:40:17;;;;;;;16.38;6.07;;;4.40;99.90;;;;;;12592635;28;20070;-85
2022/12/27 07:46:22;;;;;;;15.02;6.40;;;4.40;99.90;;;;;;12571220;28;20064;-85
2022/12/27 07:52:24;;;;;;;12.95;5.70;;;4.40;99.90;;;;;;12584928;28;20393;-85
2022/12/27 07:58:26;;;;;;;23.23;6.30;;;4.30;99.90;;;;;;12568524;28;20048;-85
2022/12/27 08:04:28;;;;;;;12.48;5.78;;;4.30;99.90;;;;;;12571229;28;20068;-85
2022/12/27 08:10:30;;;;;;;12.27;6.05;;;4.30;99.90;;;;;;12591402;28;20044;-85
2022/12/27 08:16:32;;;;;;;16.17;6.22;;;4.20;99.90;;;;;;12567362;28;20446;-85
2022/12/27 08:22:33;;;;;;;14.77;5.82;;;4.20;99.90;;;;;;12591835;28;20056;-85
2022/12/27 08:28:35;;;;;;;12.77;5.40;;;4.30;99.90;;;;;;12588823;28;20048;-85
2022/12/27 08:34:37;;;;;;;17.40;6.18;;;4.50;99.90;;;;;;12521332;28;1099839;-85
2022/12/27 08:40:41;;;;;;;12.02;5.70;;;4.50;99.90;;;;;;12593021;28;20040;-85
2022/12/27 08:46:43;;;;;;;19.02;6.10;;;4.50;99.90;;;;;;12566486;28;20056;-85
2022/12/27 08:52:45;;;;;;;14.05;5.22;;;4.40;99.90;;;;;;12591077;28;20044;-85
2022/12/27 08:58:50;;;;;;;9.90;5.28;;;4.50;99.90;;;;;;12600680;28;20040;-85
2022/12/27 09:04:51;;;;;;;11.75;5.28;;;4.50;99.90;;;;;;12580779;28;20094;-85
2022/12/27 09:10:53;;;;;;;13.82;5.07;;;4.60;99.90;;;;;;12568863;28;20405;-85
2022/12/27 09:16:55;;;;;;;11.55;5.88;;;4.70;99.90;;;;;;12586184;28;20060;-85
2022/12/27 09:22:58;;;;;;;11.10;4.90;;;4.70;99.90;;;;;;12596126;28;20044;-85
2022/12/27 09:29:00;;;;;;;11.07;4.82;;;4.80;99.90;;;;;;12567161;28;20049;-85
2022/12/27 09:35:02;;;;;;;16.15;5.70;;;4.80;99.90;;;;;;12570041;28;20149;-85
2022/12/27 09:41:25;;;;;;;19.83;5.45;;;4.90;99.90;;;;;;12607820;28;20048;-85
2022/12/27 09:47:51;;;;;;;10.70;5.05;;;4.90;99.90;;;;;;12574953;28;20412;-85
2022/12/27 09:54:11;;;;;;;11.25;6.05;;;5.00;99.90;;;;;;12587227;28;20040;-86
2022/12/27 10:00:15;;;;;;;14.32;7.05;;;4.90;99.90;;;;;;12595883;28;20389;-85
2022/12/27 10:06:49;;;;;;;16.40;5.85;;;5.00;99.90;;;;;;12587313;28;20053;-85
2022/12/27 10:13:03;;;;;;;12.77;6.00;;;5.00;99.90;;;;;;12578657;28;20190;-85
2022/12/27 10:19:36;;;;;;;13.30;5.10;;;5.00;99.90;;;;;;12590437;28;20400;-85
2022/12/27 10:25:39;;;;;;;12.18;4.85;;;5.10;99.90;;;;;;12562453;28;20052;-85
2022/12/27 10:31:42;;;;;;;19.42;4.93;;;5.20;99.90;;;;;;12589469;28;20049;-85
2022/12/27 10:37:45;;;;;;;13.73;5.32;;;5.30;99.90;;;;;;12565646;28;20041;-85
2022/12/27 10:43:51;;;;;;;12.48;5.57;;;5.20;99.90;;;;;;12599543;28;20059;-85
2022/12/27 10:50:12;;;;;;;11.82;6.25;;;5.20;99.90;;;;;;12564680;28;20097;-85
2022/12/27 10:56:18;;;;;;;17.67;5.55;;;5.20;99.90;;;;;;12584543;28;20104;-85
2022/12/27 11:02:20;;;;;;;15.27;4.68;;;5.30;99.90;;;;;;12574556;28;20049;-85
2022/12/27 11:08:23;;;;;;;13.45;4.50;;;5.30;99.90;;;;;;12563340;28;20049;-85
2022/12/27 11:14:25;;;;;;;12.32;4.20;;;5.30;99.90;;;;;;12558610;28;20045;-85
2022/12/27 11:20:36;;;;;;;14.23;4.57;;;5.40;99.90;;;;;;12575998;28;20097;-85
2022/12/27 11:26:50;;;;;;;12.45;4.72;;;5.60;99.90;;;;;;12595715;28;20067;-85
2022/12/27 11:33:00;;;;;;;11.57;4.47;;;5.50;99.90;;;;;;12566563;28;20041;-85
2022/12/27 11:39:03;;;;;;;11.68;5.22;;;5.60;99.90;;;;;;12592424;28;20048;-84
2022/12/27 11:45:39;;;;;;;14.75;5.10;;;5.60;99.90;;;;;;12582954;28;20089;-85
2022/12/27 11:51:44;;;;;;;12.65;4.82;;;5.60;99.90;;;;;;12621181;28;20044;-85
2022/12/27 11:58:09;;;;;;;;;;;5.60;99.90;;;;;;12645166;28;20037;-85
2022/12/27 12:04:42;;;;;;;10.20;5.23;;;5.80;99.90;;;;;;12615665;28;19927;-86
2022/12/27 12:11:22;;;;;;;9.80;4.32;;;5.90;99.90;;;;;;12627431;28;20045;-85
2022/12/27 12:17:39;;;;;;;9.25;5.18;;;5.70;99.90;;;;;;12645100;28;20073;-85
2022/12/27 12:23:41;;;;;;;12.50;4.43;;;5.50;99.90;;;;;;12647572;28;20067;-85
2022/12/27 12:29:58;;;;;;;15.40;4.78;;;5.40;99.90;;;;;;12642486;28;20074;-86
2022/12/27 12:36:12;;;;;;;7.70;4.20;;;5.40;99.90;;;;;;12636406;28;20059;-85
2022/12/27 12:42:17;;;;;;;9.97;4.17;;;5.40;99.90;;;;;;12613778;28;20052;-84
2022/12/27 12:48:31;;;;;;;11.00;3.40;;;5.40;99.90;;;;;;12596374;28;20167;-84
2022/12/27 12:54:46;;;;;;;14.32;3.95;;;5.50;99.90;;;;;;12578923;28;20047;-83
2022/12/27 13:00:55;;;;;;;;;;;5.60;99.90;;;;;;12597858;28;20162;-84
2022/12/27 13:07:39;;;;;;;9.10;4.07;;;5.60;99.90;;;;;;12583749;28;20022;-83
2022/12/27 13:14:00;;;;;;;8.45;3.80;;;5.70;99.90;;;;;;12579490;28;20089;-83
2022/12/27 13:20:14;;;;;;;11.07;4.22;;;5.70;99.90;;;;;;12576525;28;20052;-83
2022/12/27 13:26:44;;;;;;;8.52;4.40;;;5.60;99.90;;;;;;12594456;28;20146;-84
2022/12/27 13:32:55;;;;;;;17.08;6.45;;;5.60;99.90;;;;;;12573540;28;20132;-84
2022/12/27 13:39:06;;;;;;;12.18;7.32;;;5.60;99.90;;;;;;12550049;28;20045;-84
2022/12/27 13:45:36;;;;;;;17.27;7.57;;;5.60;99.90;;;;;;12584928;28;20047;-84
2022/12/27 13:51:45;;;;;;;12.52;7.55;;;5.60;99.90;;;;;;12564596;28;20045;-84
2022/12/27 13:58:11;;;;;;;15.48;7.57;;;5.60;99.90;;;;;;12581953;28;20075;-84
2022/12/27 14:04:48;;;;;;;17.08;8.27;;;5.80;99.90;;;;;;12565994;28;20056;-84
2022/12/27 14:10:55;;;;;;;12.50;8.20;;;5.80;99.90;;;;;;12554100;28;20044;-84
2022/12/27 14:17:32;;;;;;;14.20;7.75;;;5.80;99.90;;;;;;12588745;28;20063;-84
2022/12/27 14:23:49;;;;;;;16.88;8.02;;;5.70;99.90;;;;;;12588077;28;20413;-84
2022/12/27 14:30:03;;;;;;;13.25;7.38;;;5.60;99.90;;;;;;12584520;28;20053;-84
2022/12/27 14:36:49;;;;;;;17.33;7.90;;;5.60;99.90;;;;;;12573752;28;20185;-84
2022/12/27 14:43:15;;;;;;;15.57;8.25;;;5.60;99.90;;;;;;12584574;28;20040;-84
2022/12/27 14:49:39;;;;;;;15.27;6.63;;;5.50;99.90;;;;;;12568352;28;20477;-84
2022/12/27 14:56:11;;;;;;;14.30;5.65;;;5.50;99.90;;;;;;12581703;28;20047;-84
2022/12/27 15:02:41;;;;;;;11.00;5.18;;;5.40;99.90;;;;;;12580032;28;20519;-84
2022/12/27 15:08:59;;;;;;;10.13;5.07;;;5.50;99.90;;;;;;12566641;28;20068;-84
2022/12/27 15:15:15;;;;;;;16.13;5.88;;;5.40;99.90;;;;;;12574004;28;20044;-84
2022/12/27 15:22:00;;;;;;;16.45;6.30;;;5.30;99.90;;;;;;12595042;28;20052;-84
2022/12/27 15:28:14;;;;;;;13.57;5.47;;;5.40;99.90;;;;;;12579473;28;20075;-84
2022/12/27 15:34:36;;;;;;;12.65;4.50;;;5.40;99.90;;;;;;12589430;28;20043;-84
2022/12/27 15:40:41;;;;;;;12.00;4.38;;;5.50;99.90;;;;;;12596077;28;20052;-86
2022/12/27 15:47:04;;;;;;;13.68;4.40;;;5.40;99.90;;;;;;12589639;28;20044;-84
2022/12/27 15:53:36;;;;;;;11.80;4.82;;;5.30;99.90;;;;;;12574286;28;20068;-84
2022/12/27 16:00:03;;;;;;;13.90;4.22;;;5.30;99.90;;;;;;12589753;28;20040;-86
2022/12/27 16:06:09;;;;;;;16.35;4.03;;;5.20;99.90;;;;;;12584198;28;20059;-84
2022/12/27 16:12:29;;;;;;;15.48;3.92;;;5.30;99.90;;;;;;12564381;28;20037;-84
2022/12/27 16:19:07;;;;;;;9.13;3.80;;;5.10;99.90;;;;;;12589309;28;20069;-84
2022/12/27 16:25:18;;;;;;;7.22;3.22;;;5.10;99.90;;;;;;12581249;28;20049;-83
2022/12/27 16:31:23;;;;;;;9.63;3.45;;;5.10;99.90;;;;;;12573789;28;20492;-83
2022/12/27 16:37:37;;;;;;;8.50;3.13;;;5.10;99.90;;;;;;12584979;28;20045;-83
2022/12/27 16:43:52;;;;;;;13.07;4.60;;;5.00;99.90;;;;;;12574766;28;20071;-83
2022/12/27 16:50:14;;;;;;;9.30;4.05;;;5.20;99.90;;;;;;12557184;28;20052;-85
2022/12/27 16:56:27;;;;;;;11.57;3.92;;;5.20;99.90;;;;;;12569885;28;20049;-83
2022/12/27 17:02:46;;;;;;;9.88;3.70;;;5.30;99.90;;;;;;12565913;28;20153;-83
2022/12/27 17:09:08;;;;;;;14.30;3.90;;;5.30;99.90;;;;;;12552009;28;20044;-82
2022/12/27 17:15:12;;;;;;;8.63;3.60;;;5.30;99.90;;;;;;12538589;28;20167;-83
2022/12/27 17:21:37;;;;;;;14.05;4.22;;;5.40;99.90;;;;;;12585456;28;20064;-83
2022/12/27 17:27:44;;;;;;;10.70;3.85;;;5.50;99.90;;;;;;12585423;28;20052;-83
2022/12/27 17:34:05;;;;;;;13.13;3.85;;;5.60;99.90;;;;;;12512322;28;20136;-83
2022/12/27 17:40:36;;;;;;;12.10;3.90;;;5.60;99.90;;;;;;12490865;28;20077;-83
2022/12/27 17:46:59;;;;;;;10.20;2.95;;;5.70;99.90;;;;;;12499094;28;20073;-83
2022/12/27 17:59:31;;;;;;;9.30;3.13;;;5.80;99.90;;;;;;12478794;28;20079;-83
2022/12/27 18:05:39;;;;;;;10.60;3.27;;;5.80;99.90;;;;;;12487339;28;20045;-83
2022/12/27 18:11:41;;;;;;;14.98;3.70;;;5.90;99.90;;;;;;12492291;28;20518;-83
2022/12/27 18:17:46;;;;;;;10.50;3.50;;;5.90;99.90;;;;;;12484825;28;20042;-83
2022/12/27 18:23:51;;;;;;;6.75;2.63;;;6.00;99.90;;;;;;12491674;28;20041;-83
2022/12/27 18:29:53;;;;;;;12.45;2.58;;;6.00;99.90;;;;;;12508270;28;20056;-83
2022/12/27 18:35:56;;;;;;;9.02;2.42;;;6.10;99.90;;;;;;12582852;28;20469;-83
2022/12/27 18:42:01;;;;;;;6.93;2.15;;;6.10;99.90;;;;;;12579936;28;20041;-84
2022/12/27 18:48:10;;;;;;;8.65;2.10;;;6.20;99.90;;;;;;12576005;28;20179;-84
2022/12/27 18:54:27;;;;;;;10.52;1.90;;;6.20;99.90;;;;;;12571001;28;20155;-83
2022/12/27 19:00:29;;;;;;;7.47;2.03;;;6.30;99.90;;;;;;12589753;28;20131;-83
2022/12/27 19:06:31;;;;;;;11.75;1.75;;;6.20;99.90;;;;;;12590296;28;20489;-83
2022/12/27 19:12:36;;;;;;;7.32;2.13;;;6.20;99.90;;;;;;12588879;28;20040;-83
2022/12/27 19:18:38;;;;;;;10.10;1.67;;;6.20;99.90;;;;;;12591769;28;20166;-83
2022/12/27 19:24:40;;;;;;;6.63;1.85;;;6.20;99.90;;;;;;12575806;28;20508;-83
2022/12/27 19:30:43;;;;;;;5.00;1.40;;;6.20;99.90;;;;;;12592355;28;20045;-83
2022/12/27 19:36:47;;;;;;;5.25;1.40;;;6.20;99.90;;;;;;12574087;28;20041;-83
2022/12/27 19:42:48;;;;;;;8.52;1.60;;;6.10;99.90;;;;;;12609039;28;20517;-83
2022/12/27 19:48:50;;;;;;;8.10;1.80;;;6.10;99.90;;;;;;12569914;28;20040;-83
2022/12/27 19:55:19;;;;;;;8.43;1.63;;;6.20;99.90;;;;;;12589188;28;20047;-84
2022/12/27 20:01:21;;;;;;;4.97;1.40;;;6.20;99.90;;;;;;12578857;28;20041;-83
2022/12/27 20:07:24;;;;;;;6.07;1.40;;;6.10;99.90;;;;;;12586257;28;20048;-83
2022/12/27 20:13:27;;;;;;;4.63;1.52;;;6.10;99.90;;;;;;12585432;28;20041;-83
2022/12/27 20:19:29;;;;;;;9.70;1.83;;;5.90;99.90;;;;;;12569125;28;20488;-83
2022/12/27 20:25:32;;;;;;;7.35;1.45;;;6.00;99.90;;;;;;12572811;28;20139;-83
2022/12/27 20:31:34;;;;;;;4.55;1.33;;;5.90;99.90;;;;;;12589783;28;20041;-84
2022/12/27 20:37:45;;;;;;;10.75;1.75;;;5.70;99.90;;;;;;12588786;28;20068;-83
2022/12/27 20:43:47;;;;;;;3.78;1.52;;;5.60;99.90;;;;;;12569913;28;20048;-83
2022/12/27 20:49:49;;;;;;;6.75;2.72;;;5.50;99.90;;;;;;12566759;28;20040;-83
2022/12/27 20:55:58;;;;;;;7.43;1.80;;;5.40;99.90;;;;;;12561371;28;20048;-83
2022/12/27 21:02:00;;;;;;;5.15;1.52;;;5.30;99.90;;;;;;12561066;28;20071;-84
2022/12/27 21:08:02;;;;;;;7.95;1.50;;;5.40;99.90;;;;;;12579427;28;20071;-83
2022/12/27 21:14:04;;;;;;;6.25;1.55;;;5.30;99.90;;;;;;12584137;28;20045;-82
2022/12/27 21:20:09;;;;;;;4.80;1.50;;;5.20;99.90;;;;;;12585122;28;20044;-83
2022/12/27 21:26:20;;;;;;;6.50;1.55;;;5.10;99.90;;;;;;12587224;28;20052;-83
2022/12/27 21:32:22;;;;;;;10.23;1.75;;;5.10;99.90;;;;;;12583942;28;20060;-83
2022/12/27 21:38:24;;;;;;;4.45;1.58;;;5.10;99.90;;;;;;12568857;28;20060;-83
2022/12/27 21:44:27;;;;;;;6.00;1.42;;;5.00;99.90;;;;;;12590052;28;20059;-82
2022/12/27 21:50:28;;;;;;;8.52;1.40;;;5.00;99.90;;;;;;12582483;28;20069;-83
2022/12/27 21:56:38;;;;;;;5.95;1.60;;;4.90;99.90;;;;;;12583859;28;20056;-83
2022/12/27 22:02:39;;;;;;;6.75;1.38;;;4.80;99.90;;;;;;12585737;28;20470;-83
2022/12/27 22:08:43;;;;;;;5.93;2.40;;;4.80;99.90;;;;;;12553954;28;20049;-83
2022/12/27 22:14:45;;;;;;;4.75;1.58;;;4.70;99.90;;;;;;12585594;28;20550;-82
2022/12/27 22:20:47;;;;;;;7.95;1.70;;;4.80;99.90;;;;;;12563858;28;20040;-82
2022/12/27 22:26:48;;;;;;;5.97;1.55;;;4.70;99.90;;;;;;12579746;28;20052;-83
2022/12/27 22:32:51;;;;;;;5.13;1.58;;;4.70;99.90;;;;;;12576134;28;20081;-83
2022/12/27 22:38:57;;;;;;;6.55;2.42;;;4.70;99.90;;;;;;12577091;28;20049;-82
2022/12/27 22:44:59;;;;;;;7.65;2.20;;;4.80;99.90;;;;;;12582833;28;20063;-83
2022/12/27 22:51:14;;;;;;;5.20;1.38;;;4.70;99.90;;;;;;12563386;28;20079;-83
2022/12/27 22:57:16;;;;;;;6.72;1.40;;;4.70;99.90;;;;;;12572580;28;20045;-83
2022/12/27 23:03:18;;;;;;;4.55;1.65;;;4.70;99.90;;;;;;12569948;28;20052;-83
2022/12/27 23:09:19;;;;;;;4.75;1.52;;;4.80;99.90;;;;;;12564071;28;20045;-83
2022/12/27 23:15:21;;;;;;;5.85;1.40;;;4.80;99.90;;;;;;12579471;28;20044;-83
2022/12/27 23:21:23;;;;;;;4.80;1.63;;;4.70;99.90;;;;;;12587722;28;20044;-83
2022/12/27 23:27:25;;;;;;;6.15;1.42;;;4.80;99.90;;;;;;12588043;28;20182;-83
2022/12/27 23:33:27;;;;;;;6.97;1.52;;;4.80;99.90;;;;;;12574708;28;20072;-83
2022/12/27 23:39:29;;;;;;;6.35;1.40;;;4.80;99.90;;;;;;12588763;28;20047;-83
2022/12/27 23:45:32;;;;;;;3.95;1.30;;;4.80;99.90;;;;;;12595780;28;20075;-83
2022/12/27 23:51:34;;;;;;;5.75;1.25;;;4.90;99.90;;;;;;12589215;28;20089;-83
2022/12/27 23:57:36;;;;;;;6.43;1.40;;;4.90;99.90;;;;;;12585785;28;20127;-83
